Time;durP1;ratioP1;P1;durP2;ratioP2;P2;SDS_P1;SDS_P2;PMS_P1;PMS_P2;Temp;Humidity;BMP_temperature;BMP_pressure;BME280_temperature;BME280_humidity;BME280_pressure;Samples;Min_cycle;Max_cycle;Signal;HPM_P1;HPM_P2
2020/12/12 00:01:06;;;;;;;56.73;19.57;;;;;;;2.43;88.60;98119.67;1797826;79;21171;-80
2020/12/12 00:03:34;;;;;;;94.55;29.15;;;;;;;2.45;88.84;98120.52;1797790;78;21137;-80
2020/12/12 00:06:01;;;;;;;82.67;28.15;;;;;;;2.47;88.72;98121.35;1785793;79;21197;-81
2020/12/12 00:08:28;;;;;;;65.50;22.62;;;;;;;2.50;88.85;98127.72;1805977;78;21177;-80
2020/12/12 00:10:56;;;;;;;49.65;19.60;;;;;;;2.51;88.54;98128.59;1807750;78;21161;-80
2020/12/12 00:13:24;;;;;;;51.13;18.37;;;;;;;2.52;88.49;98131.13;1799867;78;21168;-80
2020/12/12 00:15:51;;;;;;;57.90;19.42;;;;;;;2.53;88.58;98126.43;1808294;78;21657;-78
2020/12/12 00:18:19;;;;;;;51.13;20.97;;;;;;;2.57;88.85;98128.10;1803347;78;21619;-81
2020/12/12 00:20:46;;;;;;;47.27;17.85;;;;;;;2.58;88.83;98129.79;1807306;78;21180;-78
2020/12/12 00:23:13;;;;;;;50.03;19.70;;;;;;;2.62;88.80;98134.91;1804194;78;21157;-79
2020/12/12 00:25:41;;;;;;;62.70;21.62;;;;;;;2.63;88.70;98137.91;1804851;78;21220;-78
2020/12/12 00:28:08;;;;;;;75.97;24.85;;;;;;;2.66;88.76;98134.86;1793147;78;21150;-80
2020/12/12 00:30:35;;;;;;;73.50;25.97;;;;;;;2.66;88.41;98136.58;1786019;79;21149;-80
2020/12/12 00:33:03;;;;;;;170.38;58.25;;;;;;;2.64;88.48;98131.90;1795044;78;21593;-82
2020/12/12 00:35:30;;;;;;;97.30;35.08;;;;;;;2.63;88.45;98130.21;1789869;79;21171;-80
2020/12/12 00:37:57;;;;;;;106.40;37.15;;;;;;;2.59;88.62;98130.66;1802273;78;21165;-79
2020/12/12 00:40:25;;;;;;;107.17;33.20;;;;;;;2.57;88.60;98131.11;1766609;80;21180;-79
2020/12/12 00:42:52;;;;;;;104.32;37.83;;;;;;;2.56;88.84;98131.52;1796660;78;21181;-80
2020/12/12 00:45:19;;;;;;;99.28;31.77;;;;;;;2.57;88.55;98130.67;1769030;80;21757;-82
2020/12/12 00:47:47;;;;;;;93.25;30.68;;;;;;;2.57;88.72;98129.39;1739805;80;21205;-79
2020/12/12 00:50:15;;;;;;;93.20;31.15;;;;;;;2.59;89.03;98122.97;1769535;79;21173;-78
2020/12/12 00:52:43;;;;;;;79.92;27.85;;;;;;;2.61;89.04;98128.06;1797146;78;21176;-78
2020/12/12 00:55:11;;;;;;;77.42;28.12;;;;;;;2.64;89.60;98125.04;1795924;78;21125;-80
2020/12/12 00:57:38;;;;;;;74.47;27.25;;;;;;;2.68;89.76;98128.44;1791257;79;21718;-80
2020/12/12 01:00:06;;;;;;;69.85;26.33;;;;;;;2.72;89.56;98122.41;1796448;78;21218;-80
2020/12/12 01:02:33;;;;;;;63.95;25.90;;;;;;;2.77;89.75;98126.64;1767823;79;21629;-80
2020/12/12 01:05:01;;;;;;;65.42;24.55;;;;;;;2.85;89.57;98122.72;1798207;78;21610;-79
2020/12/12 01:07:29;;;;;;;86.28;27.07;;;;;;;2.91;89.93;98112.39;1796584;78;21156;-80
2020/12/12 01:09:57;;;;;;;70.95;26.90;;;;;;;2.98;89.67;98108.91;1794610;78;21122;-80
2020/12/12 01:12:24;;;;;;;75.10;26.95;;;;;;;3.04;89.78;98114.38;1798087;78;21149;-80
2020/12/12 01:14:51;;;;;;;77.58;28.38;;;;;;;3.12;89.68;98104.91;1796824;78;21173;-81
2020/12/12 01:17:19;;;;;;;85.50;32.20;;;;;;;3.19;89.68;98104.39;1793597;78;21177;-79
2020/12/12 01:19:47;;;;;;;82.90;30.82;;;;;;;3.28;89.58;98106.87;1795548;78;21157;-80
2020/12/12 01:22:14;;;;;;;81.47;31.10;;;;;;;3.30;89.30;98097.83;1789130;79;21993;-81
2020/12/12 01:24:41;;;;;;;85.72;30.08;;;;;;;3.33;89.12;98096.53;1799933;78;21151;-80
2020/12/12 01:27:09;;;;;;;87.40;31.48;;;;;;;3.35;89.05;98094.78;1790152;79;21160;-80
2020/12/12 01:29:36;;;;;;;81.75;31.65;;;;;;;3.36;88.57;98085.78;1818729;78;21177;-81
2020/12/12 01:32:03;;;;;;;96.55;31.62;;;;;;;3.34;88.70;98082.38;1820616;78;21165;-79
2020/12/12 01:34:31;;;;;;;92.95;34.08;;;;;;;3.32;88.85;98081.55;1812118;78;21149;-79
2020/12/12 01:36:58;;;;;;;103.07;35.15;;;;;;;3.32;88.94;98080.68;1750449;80;21192;-80
2020/12/12 01:39:25;;;;;;;89.10;34.43;;;;;;;3.28;88.80;98086.31;1811115;78;21555;-80
2020/12/12 01:41:56;;;;;;;94.70;32.75;;;;;;;3.28;88.74;98086.73;1777319;80;21544;-80
2020/12/12 01:44:23;;;;;;;81.63;30.82;;;;;;;3.27;89.05;98093.59;1790902;80;21166;-81
2020/12/12 01:46:52;;;;;;;85.35;30.68;;;;;;;3.25;88.78;98092.76;1802817;79;21165;-80
2020/12/12 01:49:20;;;;;;;69.80;27.60;;;;;;;3.24;88.57;98096.63;1806390;79;21176;-80
2020/12/12 01:51:48;;;;;;;67.32;25.62;;;;;;;3.22;88.94;98095.79;1801840;79;21659;-81
2020/12/12 01:54:15;;;;;;;72.72;24.30;;;;;;;3.22;89.03;98082.95;1805474;79;21715;-80
2020/12/12 01:56:43;;;;;;;79.25;27.35;;;;;;;3.23;89.07;98082.94;1791958;80;21437;-80
2020/12/12 01:59:12;;;;;;;75.78;25.70;;;;;;;3.27;88.92;98079.91;1762677;78;21161;-79
2020/12/12 02:01:43;;;;;;;68.85;24.87;;;;;;;3.25;88.81;98077.79;1823249;78;21287;-79
2020/12/12 02:04:15;;;;;;;75.78;24.50;;;;;;;3.23;89.00;98073.95;1812163;78;21166;-80
2020/12/12 02:06:44;;;;;;;64.55;22.80;;;;;;;3.26;88.98;98067.91;1778986;78;21164;-80
2020/12/12 02:09:14;;;;;;;60.17;22.00;;;;;;;3.28;88.82;98076.04;1788265;79;21295;-80
2020/12/12 02:11:41;;;;;;;48.63;17.37;;;;;;;3.31;88.84;98079.00;1777047;78;21144;-82
2020/12/12 02:14:11;;;;;;;50.60;19.12;;;;;;;3.34;88.60;98075.96;1815024;78;22230;-80
2020/12/12 02:16:57;;;;;;;48.78;16.77;;;;;;;3.37;88.49;98070.77;1814654;78;21144;-80
2020/12/12 02:19:25;;;;;;;42.65;15.55;;;;;;;3.43;88.64;98065.15;1778795;79;21660;-80
2020/12/12 02:21:55;;;;;;;48.35;15.55;;;;;;;3.47;88.56;98063.80;1776170;78;22225;-80
2020/12/12 02:24:25;;;;;;;42.67;16.82;;;;;;;3.51;88.37;98065.45;1812922;78;21566;-81
2020/12/12 02:26:53;;;;;;;53.80;17.30;;;;;;;3.52;88.08;98065.01;1803802;78;21134;-79
2020/12/12 02:29:20;;;;;;;47.13;17.55;;;;;;;3.54;88.22;98063.27;1793801;78;21625;-78
2020/12/12 02:31:48;;;;;;;48.30;16.82;;;;;;;3.55;88.06;98063.25;1789838;79;21173;-81
2020/12/12 02:34:16;;;;;;;49.15;15.90;;;;;;;3.55;88.00;98058.11;1798328;78;21152;-82
2020/12/12 02:36:43;;;;;;;36.83;15.03;;;;;;;3.52;87.91;98058.17;1802632;78;21161;-78
2020/12/12 02:39:14;;;;;;;48.28;17.62;;;;;;;3.52;87.96;98068.86;1790423;79;21180;-80
2020/12/12 02:41:42;;;;;;;45.98;16.45;;;;;;;3.50;87.89;98064.18;1798203;78;21156;-80
2020/12/12 02:44:11;;;;;;;42.35;15.98;;;;;;;3.47;88.04;98069.38;1798468;78;21510;-80
2020/12/12 02:46:39;;;;;;;48.25;16.77;;;;;;;3.44;87.99;98061.25;1768476;80;21161;-81
2020/12/12 02:49:06;;;;;;;36.68;14.47;;;;;;;3.37;87.75;98059.20;1799788;78;21176;-80
2020/12/12 02:51:39;;;;;;;40.10;15.18;;;;;;;3.32;88.17;98050.73;1800090;78;21761;-80
2020/12/12 02:54:07;;;;;;;39.58;14.58;;;;;;;3.31;88.30;98055.44;1799838;78;21303;-80
2020/12/12 02:56:35;;;;;;;48.20;14.47;;;;;;;3.28;88.46;98054.20;1791319;79;21796;-80
2020/12/12 02:59:03;;;;;;;37.73;13.88;;;;;;;3.28;88.41;98050.35;1802723;78;21161;-80
2020/12/12 03:01:31;;;;;;;37.93;14.33;;;;;;;3.28;88.60;98050.77;1768565;79;21204;-80
2020/12/12 03:03:58;;;;;;;39.03;14.80;;;;;;;3.27;88.06;98047.80;1792419;78;21165;-80
2020/12/12 03:06:25;;;;;;;43.02;15.90;;;;;;;3.24;88.00;98042.68;1796408;78;21172;-80
2020/12/12 03:08:52;;;;;;;46.80;15.88;;;;;;;3.22;88.38;98040.13;1794430;78;21267;-81
2020/12/12 03:11:20;;;;;;;46.45;16.17;;;;;;;3.22;88.55;98045.27;1771169;79;21303;-80
2020/12/12 03:13:47;;;;;;;43.68;15.00;;;;;;;3.21;88.54;98044.02;1800019;78;21178;-80
2020/12/12 03:16:14;;;;;;;44.88;17.07;;;;;;;3.24;88.78;98042.23;1799636;78;21133;-81
2020/12/12 03:18:42;;;;;;;39.05;15.00;;;;;;;3.29;88.88;98044.33;1799849;78;21172;-80
2020/12/12 03:21:09;;;;;;;47.35;16.80;;;;;;;3.31;88.68;98041.75;1792450;79;21177;-80
2020/12/12 03:23:36;;;;;;;44.27;17.52;;;;;;;3.32;88.75;98038.29;1789935;79;21921;-81
2020/12/12 03:26:04;;;;;;;49.70;18.70;;;;;;;3.36;88.85;98041.23;1787970;79;21158;-80
2020/12/12 03:28:31;;;;;;;48.40;18.40;;;;;;;3.41;88.74;98047.17;1797677;78;21283;-80
2020/12/12 03:30:58;;;;;;;49.73;17.67;;;;;;;3.45;88.78;98047.99;1798444;78;21169;-81
2020/12/12 03:33:26;;;;;;;53.42;19.25;;;;;;;3.48;88.82;98050.09;1794694;78;21476;-80
2020/12/12 03:35:54;;;;;;;50.10;20.85;;;;;;;3.51;88.78;98044.89;1770661;79;21596;-80
2020/12/12 03:38:21;;;;;;;58.00;21.93;;;;;;;3.53;88.65;98047.01;1801346;78;21268;-80
2020/12/12 03:40:49;;;;;;;48.33;20.40;;;;;;;3.55;88.63;98045.70;1773824;79;21185;-83
2020/12/12 03:43:16;;;;;;;51.98;20.50;;;;;;;3.59;88.58;98049.94;1786523;78;21162;-80
2020/12/12 03:45:43;;;;;;;60.95;21.80;;;;;;;3.57;88.52;98047.38;1768634;79;21205;-80
2020/12/12 03:48:12;;;;;;;46.00;20.30;;;;;;;3.57;88.55;98051.67;1798102;78;22000;-78
2020/12/12 03:50:39;;;;;;;50.88;20.02;;;;;;;3.55;88.33;98041.41;1764526;79;21169;-80
2020/12/12 03:53:07;;;;;;;50.10;19.90;;;;;;;3.55;88.68;98043.14;1794781;78;21774;-82
2020/12/12 03:55:34;;;;;;;46.75;19.42;;;;;;;3.55;88.80;98041.41;1793987;78;22316;-80
2020/12/12 03:58:02;;;;;;;34.70;16.60;;;;;;;3.55;89.31;98038.00;1768397;80;21176;-81
2020/12/12 04:00:29;;;;;;;39.60;17.57;;;;;;;3.55;89.28;98041.41;1791846;78;21616;-81
2020/12/12 04:02:57;;;;;;;35.23;16.73;;;;;;;3.56;89.23;98040.55;1789299;79;21173;-81
2020/12/12 04:05:24;;;;;;;37.35;18.48;;;;;;;3.58;89.41;98041.80;1789494;79;21162;-81
2020/12/12 04:07:51;;;;;;;40.90;17.77;;;;;;;3.59;89.28;98039.66;1801904;78;21311;-80
2020/12/12 04:10:19;;;;;;;37.35;16.65;;;;;;;3.61;89.48;98035.78;1805712;78;21287;-80
2020/12/12 04:12:46;;;;;;;30.50;14.90;;;;;;;3.63;89.39;98033.59;1788253;79;21165;-79
2020/12/12 04:15:13;;;;;;;37.25;15.48;;;;;;;3.66;89.46;98027.14;1802507;78;21184;-80
2020/12/12 04:17:41;;;;;;;28.85;14.35;;;;;;;3.69;89.39;98027.08;1808607;78;21176;-80
2020/12/12 04:20:08;;;;;;;29.80;14.53;;;;;;;3.73;89.96;98026.60;1796271;78;21144;-82
2020/12/12 04:22:36;;;;;;;26.55;13.43;;;;;;;3.77;89.47;98026.53;1768935;79;21164;-79
2020/12/12 04:25:03;;;;;;;29.80;13.32;;;;;;;3.82;89.96;98020.46;1753020;80;21165;-80
2020/12/12 04:27:31;;;;;;;26.52;13.58;;;;;;;3.86;89.60;98019.13;1797037;78;21180;-81
2020/12/12 04:29:58;;;;;;;29.20;13.35;;;;;;;3.92;89.50;98022.02;1785905;79;21193;-80
2020/12/12 04:32:25;;;;;;;34.15;14.25;;;;;;;3.95;89.45;98013.83;1751879;81;21601;-80
2020/12/12 04:34:53;;;;;;;33.50;14.55;;;;;;;3.97;89.26;98009.50;1787917;79;21192;-81
2020/12/12 04:37:21;;;;;;;29.23;14.47;;;;;;;4.00;89.09;98016.34;1749271;81;21174;-81
2020/12/12 04:39:48;;;;;;;34.70;15.32;;;;;;;4.04;89.14;98020.56;1783872;79;21141;-81
2020/12/12 04:42:17;;;;;;;30.68;15.40;;;;;;;4.06;89.03;98016.24;1754885;80;21152;-80
2020/12/12 04:44:46;;;;;;;35.70;16.25;;;;;;;4.09;88.93;98022.61;1780714;79;21319;-81
2020/12/12 04:47:13;;;;;;;32.73;16.57;;;;;;;4.13;88.82;98023.41;1786354;80;21471;-80
2020/12/12 04:49:41;;;;;;;36.60;19.00;;;;;;;4.17;88.88;98025.90;1781866;79;21185;-79
2020/12/12 04:52:08;;;;;;;36.68;18.87;;;;;;;4.19;88.57;98015.14;1749715;81;21153;-81
2020/12/12 04:54:36;;;;;;;37.55;18.48;;;;;;;4.14;88.35;98022.11;1784643;79;21785;-80
2020/12/12 04:57:06;;;;;;;38.20;18.60;;;;;;;4.13;88.31;98014.41;1753517;80;21632;-80
2020/12/12 04:59:34;;;;;;;36.08;18.70;;;;;;;4.10;88.28;98017.89;1785125;79;22435;-79
2020/12/12 05:02:04;;;;;;;32.95;18.23;;;;;;;4.08;88.21;98018.77;1791771;79;21684;-80
2020/12/12 05:04:32;;;;;;;38.48;19.42;;;;;;;3.95;88.16;98003.53;1786498;79;21165;-80
2020/12/12 05:06:59;;;;;;;42.00;20.45;;;;;;;3.98;87.98;98015.52;1781946;80;21149;-80
2020/12/12 05:09:27;;;;;;;42.53;21.17;;;;;;;3.87;88.21;98014.83;1786329;79;21169;-80
2020/12/12 05:11:55;;;;;;;41.75;19.75;;;;;;;3.79;88.34;98013.66;1794083;79;21284;-80
2020/12/12 05:14:23;;;;;;;40.48;20.15;;;;;;;3.74;88.33;98012.86;1751332;80;21180;-80
2020/12/12 05:16:54;;;;;;;39.08;18.75;;;;;;;3.72;87.78;98013.32;1785207;79;21680;-78
2020/12/12 05:19:22;;;;;;;40.92;18.37;;;;;;;3.65;88.23;98019.00;1763396;79;21154;-80
2020/12/12 05:21:53;;;;;;;43.80;18.75;;;;;;;3.62;88.17;98020.76;1778059;80;21162;-80
2020/12/12 05:24:25;;;;;;;45.35;18.92;;;;;;;3.59;88.66;98024.23;1778075;79;21189;-80
2020/12/12 05:27:00;;;;;;;46.90;19.00;;;;;;;3.61;88.41;98026.79;1751848;80;21727;-79
2020/12/12 05:29:36;;;;;;;38.67;18.75;;;;;;;3.68;89.53;98016.40;1800552;77;23527;-78
2020/12/12 05:32:04;;;;;;;28.85;14.30;;;;;;;3.67;89.89;98015.97;1797924;78;21165;-78
2020/12/12 05:34:32;;;;;;;29.30;14.00;;;;;;;3.73;89.62;98018.45;1796871;78;21137;-80
2020/12/12 05:36:59;;;;;;;27.62;13.48;;;;;;;3.76;90.09;98012.40;1725818;83;21718;-81
2020/12/12 05:39:27;;;;;;;23.73;12.85;;;;;;;3.81;90.74;98017.05;1727056;83;21209;-80
2020/12/12 05:41:54;;;;;;;26.48;12.05;;;;;;;3.87;90.70;98013.54;1727598;81;21157;-80
2020/12/12 05:44:21;;;;;;;26.35;11.90;;;;;;;3.95;90.38;98011.70;1741027;81;21243;-80
2020/12/12 05:46:49;;;;;;;23.95;11.73;;;;;;;3.99;91.25;98011.61;1737558;81;22323;-81
2020/12/12 05:49:17;;;;;;;28.15;12.03;;;;;;;4.04;91.04;98015.83;1740003;81;21134;-80
2020/12/12 05:51:45;;;;;;;27.55;11.68;;;;;;;4.10;90.79;98016.60;1738098;81;21181;-80
2020/12/12 05:54:12;;;;;;;29.70;12.53;;;;;;;4.16;90.29;98015.21;1738709;81;21632;-80
2020/12/12 05:56:43;;;;;;;26.37;13.80;;;;;;;4.17;90.42;98014.77;1740881;81;21740;-80
2020/12/12 05:59:13;;;;;;;22.55;11.45;;;;;;;4.22;90.45;98021.11;1739321;81;21153;-80
2020/12/12 06:01:44;;;;;;;22.70;11.78;;;;;;;4.24;90.51;98023.22;1721107;83;21163;-79
2020/12/12 06:04:15;;;;;;;;;;;;;;;4.27;90.45;98027.04;1757426;81;21330;-81
2020/12/12 06:06:45;;;;;;;27.37;12.73;;;;;;;4.31;90.18;98028.69;1740613;81;20468;-80
2020/12/12 06:09:15;;;;;;;22.42;11.28;;;;;;;4.36;90.30;98029.02;1737485;81;21664;-80
2020/12/12 06:11:46;;;;;;;33.90;14.75;;;;;;;4.42;90.14;98029.36;1737703;81;21171;-81
2020/12/12 06:14:14;;;;;;;26.33;12.33;;;;;;;4.45;89.82;98025.88;1742244;81;21177;-80
2020/12/12 06:16:42;;;;;;;22.60;12.20;;;;;;;4.44;89.73;98026.32;1742269;81;21168;-80
2020/12/12 06:19:16;;;;;;;35.98;17.52;;;;;;;4.47;89.24;98034.42;1739920;81;21180;-80
2020/12/12 06:21:49;;;;;;;41.23;22.37;;;;;;;4.45;89.42;98034.88;1741192;81;21173;-81
2020/12/12 06:24:19;;;;;;;50.28;27.32;;;;;;;4.40;89.68;98038.83;1740842;81;21172;-79
2020/12/12 06:26:59;;;;;;;63.83;36.63;;;;;;;4.41;89.33;98029.38;1739735;81;21184;-80
2020/12/12 06:29:32;;;;;;;55.20;31.48;;;;;;;4.40;89.35;98040.13;1732735;81;21159;-80
2020/12/12 06:31:59;;;;;;;58.57;33.40;;;;;;;4.38;90.20;98034.15;1726212;82;21197;-80
2020/12/12 06:34:43;;;;;;;60.73;30.72;;;;;;;4.39;90.55;98028.11;1794833;79;21161;-80
2020/12/12 06:37:38;;;;;;;67.75;32.83;;;;;;;4.42;90.11;98026.78;1803443;78;22934;-79
2020/12/12 06:40:16;;;;;;;55.15;28.20;;;;;;;4.38;90.23;98031.58;1804566;79;21130;-79
2020/12/12 06:42:46;;;;;;;45.95;24.63;;;;;;;4.42;90.23;98033.22;1804502;79;21399;-78
2020/12/12 06:45:21;;;;;;;39.45;21.40;;;;;;;4.46;89.84;98033.58;1769307;81;21632;-80
2020/12/12 06:47:53;;;;;;;49.18;23.83;;;;;;;4.48;90.34;98034.84;1803868;79;21158;-79
2020/12/12 06:50:25;;;;;;;46.18;21.95;;;;;;;4.53;90.20;98026.14;1804137;79;21098;-80
2020/12/12 06:53:05;;;;;;;37.13;16.35;;;;;;;4.65;89.96;98026.80;1802227;78;22260;-80
2020/12/12 06:55:32;;;;;;;29.95;15.05;;;;;;;4.65;89.75;98026.80;1802501;79;21160;-80
2020/12/12 06:58:00;;;;;;;29.65;13.90;;;;;;;4.64;89.96;98031.56;1799635;79;21161;-80
2020/12/12 07:00:33;;;;;;;33.15;15.93;;;;;;;4.68;89.86;98030.62;1731994;81;21189;-82
2020/12/12 07:03:05;;;;;;;31.12;15.83;;;;;;;4.74;90.05;98033.92;1759453;81;21628;-78
2020/12/12 07:06:06;;;;;;;31.73;16.30;;;;;;;4.86;90.12;98029.42;1883932;74;23353;-81
2020/12/12 07:08:33;;;;;;;28.12;15.15;;;;;;;4.88;89.98;98031.09;1865398;76;21117;-81
2020/12/12 07:11:02;;;;;;;31.15;15.88;;;;;;;4.91;89.68;98026.30;1867095;75;21117;-81
2020/12/12 07:13:30;;;;;;;29.18;15.70;;;;;;;4.96;89.80;98030.49;1856931;76;21386;-80
2020/12/12 07:16:00;;;;;;;31.23;16.80;;;;;;;4.98;89.57;98024.88;1850317;76;22002;-80
2020/12/12 07:18:28;;;;;;;35.48;16.97;;;;;;;5.03;89.23;98023.93;1856112;76;21182;-79
2020/12/12 07:20:56;;;;;;;31.75;16.25;;;;;;;5.05;89.00;98034.60;1867043;76;21202;-82
2020/12/12 07:23:24;;;;;;;26.10;14.83;;;;;;;5.06;89.40;98035.48;1854715;76;21650;-80
2020/12/12 07:25:52;;;;;;;35.45;20.30;;;;;;;5.08;89.11;98029.85;1843425;75;21126;-81
2020/12/12 07:28:19;;;;;;;37.20;20.23;;;;;;;5.08;89.37;98029.41;1868025;76;21604;-80
2020/12/12 07:30:46;;;;;;;37.20;22.35;;;;;;;5.09;89.37;98026.38;1867692;76;21141;-80
2020/12/12 07:33:14;;;;;;;28.05;15.53;;;;;;;5.13;89.23;98024.15;1869329;76;21149;-80
2020/12/12 07:35:43;;;;;;;25.50;14.20;;;;;;;5.14;89.31;98020.70;1858655;76;21160;-80
2020/12/12 07:38:11;;;;;;;26.95;13.72;;;;;;;5.15;89.21;98018.52;1862307;75;22302;-80
2020/12/12 07:40:38;;;;;;;23.00;12.88;;;;;;;5.17;88.96;98017.64;1855969;76;22266;-80
2020/12/12 07:43:09;;;;;;;28.85;13.80;;;;;;;5.23;89.07;98021.78;1865497;76;21157;-80
2020/12/12 07:46:04;;;;;;;28.20;13.43;;;;;;;5.25;88.77;98021.77;1867821;76;21184;-80
2020/12/12 07:48:26;;;;;;;28.17;14.38;;;;;;;5.28;88.79;98029.00;1866252;75;21144;-80
2020/12/12 07:50:53;;;;;;;29.52;15.23;;;;;;;5.31;88.81;98019.92;1859067;76;21168;-80
2020/12/12 07:53:21;;;;;;;27.75;14.58;;;;;;;5.32;88.70;98019.03;1861878;76;21168;-80
2020/12/12 07:58:36;;;;;;;24.57;13.20;;;;;;;5.52;88.83;98021.63;1796177;79;22956;-86
2020/12/12 08:01:06;;;;;;;26.17;12.53;;;;;;;5.52;88.66;98021.63;1780724;79;21106;-83
2020/12/12 08:03:46;;;;;;;25.88;11.33;;;;;;;5.53;88.14;98026.75;1785269;78;21264;-83
2020/12/12 08:06:13;;;;;;;24.90;13.18;;;;;;;5.53;88.07;98030.62;1728241;81;21230;-83
2020/12/12 08:08:41;;;;;;;89.80;32.30;;;;;;;5.62;88.22;98029.56;1738534;82;21265;-83
2020/12/12 08:11:08;;;;;;;47.03;23.55;;;;;;;5.72;88.06;98028.47;1741472;82;21300;-83
2020/12/12 08:13:36;;;;;;;45.92;25.80;;;;;;;5.76;87.40;98024.93;1736613;82;21292;-84
2020/12/12 08:19:04;;;;;;;30.88;15.58;;;;;;;5.79;87.40;98034.35;1728892;82;21318;-83
2020/12/12 08:21:32;;;;;;;31.65;16.48;;;;;;;5.85;87.54;98032.05;1737552;82;21186;-81
2020/12/12 08:24:00;;;;;;;32.28;16.40;;;;;;;5.85;87.26;98029.47;1746186;82;21284;-84
2020/12/12 08:26:30;;;;;;;36.70;16.90;;;;;;;5.89;87.50;98030.67;1766542;80;21287;-83
2020/12/12 08:29:00;;;;;;;28.42;15.08;;;;;;;5.98;87.18;98032.21;1750710;81;21295;-83
2020/12/12 08:31:27;;;;;;;31.75;16.55;;;;;;;5.97;87.23;98026.21;1767759;78;21184;-83
2020/12/12 08:33:56;;;;;;;29.95;14.35;;;;;;;6.00;86.98;98022.70;1768252;79;21304;-82
2020/12/12 08:36:28;;;;;;;26.45;11.15;;;;;;;6.09;87.27;98013.46;1783390;79;21317;-82
2020/12/12 08:39:02;;;;;;;25.77;11.08;;;;;;;6.13;86.52;98013.79;1786600;79;21260;-82
2020/12/12 08:41:33;;;;;;;25.80;11.83;;;;;;;6.16;86.61;98012.86;1804675;79;21284;-81
2020/12/12 08:44:02;;;;;;;25.62;12.35;;;;;;;6.23;86.69;98013.13;1766217;79;21308;-81
2020/12/12 08:46:30;;;;;;;25.65;10.63;;;;;;;6.28;86.35;98012.55;1791531;79;21236;-82
2020/12/12 08:48:58;;;;;;;25.82;11.38;;;;;;;6.22;85.56;98004.95;1787747;79;21289;-82
2020/12/12 08:51:30;;;;;;;31.02;15.63;;;;;;;6.17;85.63;97999.92;1769350;79;21259;-82
2020/12/12 08:53:58;;;;;;;24.55;11.22;;;;;;;6.25;85.32;98006.64;1796090;78;21526;-83
2020/12/12 08:56:30;;;;;;;29.37;13.45;;;;;;;6.34;86.11;98008.97;1786071;78;21288;-84
2020/12/12 08:59:02;;;;;;;32.28;12.45;;;;;;;6.41;85.89;98004.06;1798408;78;21526;-84
2020/12/12 09:04:20;;;;;;;33.60;14.38;;;;;;;6.57;85.48;97997.61;1783291;79;23116;-88
2020/12/12 09:06:59;;;;;;;30.97;14.75;;;;;;;6.60;85.35;97997.13;1699000;78;21313;-88
2020/12/12 09:09:31;;;;;;;35.65;13.15;;;;;;;6.62;85.20;98001.80;1686769;81;21552;-85
2020/12/12 09:12:05;;;;;;;28.67;15.08;;;;;;;6.68;85.17;97992.59;1736705;79;21141;-88
2020/12/12 09:14:36;;;;;;;18.62;10.23;;;;;;;6.75;84.01;97995.42;1761664;79;21232;-87
2020/12/12 09:17:07;;;;;;;21.75;11.10;;;;;;;6.85;84.67;97987.82;1732992;80;21135;-85
2020/12/12 09:19:37;;;;;;;23.75;10.78;;;;;;;6.89;83.77;97984.71;1714374;80;21201;-89
2020/12/12 09:22:10;;;;;;;22.73;10.08;;;;;;;6.98;83.84;97988.31;1728522;78;21245;-86
2020/12/12 09:24:40;;;;;;;17.25;8.88;;;;;;;7.00;84.17;97981.36;1725668;79;21166;-89
2020/12/12 09:27:12;;;;;;;20.68;10.95;;;;;;;7.01;83.59;97984.81;1745146;80;21594;-89
2020/12/12 09:29:37;;;;;;;20.20;10.30;;;;;;;7.09;83.99;97983.69;1772776;79;21322;-89
2020/12/12 09:32:05;;;;;;;21.55;10.40;;;;;;;7.11;82.79;97979.32;1794593;79;21167;-91
2020/12/12 09:34:33;;;;;;;24.35;12.30;;;;;;;7.19;82.78;97980.84;1742924;79;21195;-90
2020/12/12 09:37:00;;;;;;;19.42;9.45;;;;;;;7.19;82.32;97973.94;1723629;82;21195;-88
2020/12/12 09:39:28;;;;;;;23.02;10.70;;;;;;;7.26;81.50;97970.29;1708879;82;21186;-89
2020/12/12 09:41:59;;;;;;;24.15;12.68;;;;;;;7.17;81.87;97961.50;1686924;84;21183;-90
2020/12/12 09:44:27;;;;;;;26.90;10.72;;;;;;;7.21;81.46;97959.22;1714030;78;21302;-89
2020/12/12 09:46:55;;;;;;;22.73;9.48;;;;;;;7.30;81.66;97955.08;1751301;80;21561;-92
2020/12/12 09:49:23;;;;;;;16.27;7.80;;;;;;;7.34;80.97;97952.80;1750775;81;21632;-90
2020/12/12 09:51:50;;;;;;;33.85;10.55;;;;;;;7.29;82.40;97946.91;1769570;80;21140;-90
2020/12/12 09:54:18;;;;;;;17.30;7.40;;;;;;;7.30;82.26;97941.28;1754516;81;21153;-92
2020/12/12 09:56:48;;;;;;;20.60;8.23;;;;;;;7.33;82.86;97938.62;1723837;83;21145;-90
2020/12/12 10:01:53;;;;;;;22.07;9.43;;;;;;;7.41;81.83;97944.86;1802649;78;22962;-85
2020/12/12 10:04:21;;;;;;;14.90;7.67;;;;;;;7.29;81.08;97937.02;1733798;82;21196;-89
2020/12/12 10:06:48;;;;;;;15.43;7.92;;;;;;;7.16;81.16;97913.27;1797323;79;21168;-91
2020/12/12 10:09:15;;;;;;;15.03;7.62;;;;;;;7.35;81.43;97929.92;1800286;79;21161;-91
2020/12/12 10:11:43;;;;;;;15.85;8.48;;;;;;;7.31;80.44;97932.20;1804195;78;21188;-86
2020/12/12 10:14:12;;;;;;;16.48;8.48;;;;;;;7.32;79.91;97922.70;1733780;79;21152;-86
2020/12/12 10:16:39;;;;;;;17.70;9.35;;;;;;;7.33;81.03;97929.12;1745792;81;21564;-91
2020/12/12 10:19:07;;;;;;;15.70;7.87;;;;;;;7.33;80.27;97926.98;1692385;80;21594;-88
2020/12/12 10:21:34;;;;;;;16.93;8.00;;;;;;;7.33;80.83;97928.28;1653118;85;21650;-89
2020/12/12 10:24:02;;;;;;;12.55;6.60;;;;;;;7.18;80.27;97923.11;1672605;84;21203;-87
2020/12/12 10:26:29;;;;;;;12.07;6.50;;;;;;;7.11;80.10;97924.20;1691317;83;21185;-87
2020/12/12 10:28:56;;;;;;;16.07;6.85;;;;;;;7.06;79.48;97916.60;1687151;83;21196;-86
2020/12/12 10:31:24;;;;;;;13.30;5.97;;;;;;;6.97;80.02;97924.16;1667626;84;22401;-89
2020/12/12 10:33:51;;;;;;;16.62;6.85;;;;;;;7.01;79.93;97929.25;1670586;85;21153;-87
2020/12/12 10:36:20;;;;;;;11.93;6.45;;;;;;;7.08;80.65;97916.11;1698283;82;21304;-83
2020/12/12 10:38:48;;;;;;;17.23;6.87;;;;;;;7.07;80.75;97918.28;1746100;79;21187;-87
2020/12/12 10:41:17;;;;;;;15.50;7.80;;;;;;;7.18;81.47;97914.06;1717725;80;21325;-84
2020/12/12 10:43:45;;;;;;;14.15;7.40;;;;;;;7.19;80.45;97911.89;1681880;82;21173;-86
2020/12/12 10:46:13;;;;;;;16.00;7.97;;;;;;;7.20;79.93;97914.86;1686680;83;21280;-83
2020/12/12 10:48:41;;;;;;;17.70;7.78;;;;;;;7.20;79.55;97914.03;1715177;80;21191;-84
2020/12/12 10:51:08;;;;;;;14.45;7.97;;;;;;;7.15;80.09;97918.05;1700929;83;21170;-89
2020/12/12 10:53:35;;;;;;;15.45;8.50;;;;;;;7.16;80.30;97911.55;1700549;83;21143;-87
2020/12/12 10:56:03;;;;;;;14.60;7.53;;;;;;;7.10;79.56;97914.75;1696723;83;21174;-86
2020/12/12 10:58:30;;;;;;;19.00;8.98;;;;;;;7.06;80.27;97911.86;1693577;83;21603;-86
2020/12/12 11:00:58;;;;;;;14.85;7.62;;;;;;;7.08;80.72;97909.65;1711845;83;21166;-87
2020/12/12 11:03:25;;;;;;;15.25;7.35;;;;;;;7.09;80.55;97913.91;1710238;83;21198;-89
2020/12/12 11:05:54;;;;;;;25.35;10.23;;;;;;;7.11;80.78;97915.16;1706662;81;21333;-84
2020/12/12 11:08:21;;;;;;;22.62;8.60;;;;;;;7.12;80.81;97915.13;1686011;81;21142;-88
2020/12/12 11:10:48;;;;;;;22.37;8.28;;;;;;;7.14;81.04;97915.05;1680565;83;21177;-88
2020/12/12 11:13:16;;;;;;;20.43;8.63;;;;;;;7.14;80.92;97911.17;1714109;81;21201;-89
2020/12/12 11:15:43;;;;;;;21.93;9.33;;;;;;;7.12;80.79;97915.13;1706291;82;21187;-86
2020/12/12 11:18:11;;;;;;;18.40;7.53;;;;;;;6.99;80.39;97905.20;1701797;84;21220;-86
2020/12/12 11:20:39;;;;;;;27.37;9.63;;;;;;;7.08;80.54;97919.12;1739149;81;21279;-84
2020/12/12 11:23:06;;;;;;;45.55;20.27;;;;;;;7.04;80.30;97911.89;1737566;82;21238;-84
2020/12/12 11:25:33;;;;;;;24.63;10.45;;;;;;;6.99;80.38;97914.24;1720724;82;21269;-83
2020/12/12 11:28:01;;;;;;;21.80;10.28;;;;;;;7.04;80.60;97911.06;1728966;82;21304;-83
2020/12/12 11:30:29;;;;;;;26.62;9.80;;;;;;;7.02;80.39;97910.25;1744765;82;21290;-82
2020/12/12 11:32:57;;;;;;;26.62;9.58;;;;;;;7.00;80.57;97912.04;1740016;82;21246;-83
2020/12/12 11:35:33;;;;;;;28.20;11.45;;;;;;;6.99;80.53;97910.36;1711446;84;21317;-84
2020/12/12 11:48:25;;;;;;;22.77;10.75;;;;;;;7.06;80.36;97917.89;1805797;79;21279;-85
2020/12/12 11:50:53;;;;;;;27.20;10.65;;;;;;;7.04;80.09;97914.93;1816015;78;21260;-84
2020/12/12 11:53:20;;;;;;;29.82;10.48;;;;;;;7.03;80.10;97918.42;1802807;78;21314;-84
2020/12/12 11:55:48;;;;;;;19.67;9.85;;;;;;;7.03;80.39;97914.55;1820511;79;21283;-84